sensor_id;sensor_type;location;lat;lon;timestamp;temperature;humidity
71237;DHT22;58984;51.960;5.582;2022-08-21T00:00:28;26.80;46.10
71237;DHT22;58984;51.960;5.582;2022-08-21T00:02:57;26.80;46.10
71237;DHT22;58984;51.960;5.582;2022-08-21T00:05:25;26.80;46.10
71237;DHT22;58984;51.960;5.582;2022-08-21T00:07:51;26.80;46.10
71237;DHT22;58984;51.960;5.582;2022-08-21T00:10:17;26.70;46.10
71237;DHT22;58984;51.960;5.582;2022-08-21T00:12:44;26.70;46.10
71237;DHT22;58984;51.960;5.582;2022-08-21T00:15:13;26.70;46.20
71237;DHT22;58984;51.960;5.582;2022-08-21T00:17:39;26.70;46.20
71237;DHT22;58984;51.960;5.582;2022-08-21T00:20:07;26.70;46.20
71237;DHT22;58984;51.960;5.582;2022-08-21T00:22:34;26.70;46.20
71237;DHT22;58984;51.960;5.582;2022-08-21T00:25:00;26.70;46.20
71237;DHT22;58984;51.960;5.582;2022-08-21T00:27:26;26.60;46.20
71237;DHT22;58984;51.960;5.582;2022-08-21T00:29:51;26.60;46.20
71237;DHT22;58984;51.960;5.582;2022-08-21T00:32:24;26.60;46.10
71237;DHT22;58984;51.960;5.582;2022-08-21T00:34:50;26.50;46.10
71237;DHT22;58984;51.960;5.582;2022-08-21T00:37:16;26.60;46.20
71237;DHT22;58984;51.960;5.582;2022-08-21T00:39:41;26.60;46.90
71237;DHT22;58984;51.960;5.582;2022-08-21T00:42:07;26.50;46.20
71237;DHT22;58984;51.960;5.582;2022-08-21T00:44:33;26.50;46.20
71237;DHT22;58984;51.960;5.582;2022-08-21T00:46:58;26.50;46.20
71237;DHT22;58984;51.960;5.582;2022-08-21T00:49:24;26.50;46.20
71237;DHT22;58984;51.960;5.582;2022-08-21T00:51:56;26.50;46.20
71237;DHT22;58984;51.960;5.582;2022-08-21T00:54:25;26.40;46.30
71237;DHT22;58984;51.960;5.582;2022-08-21T00:57:07;26.40;46.30
71237;DHT22;58984;51.960;5.582;2022-08-21T00:59:36;26.30;46.30
71237;DHT22;58984;51.960;5.582;2022-08-21T01:02:04;26.40;46.30
71237;DHT22;58984;51.960;5.582;2022-08-21T01:04:30;26.40;46.30
71237;DHT22;58984;51.960;5.582;2022-08-21T01:06:56;26.30;46.30
71237;DHT22;58984;51.960;5.582;2022-08-21T01:09:22;26.30;46.30
71237;DHT22;58984;51.960;5.582;2022-08-21T01:11:47;26.30;46.40
71237;DHT22;58984;51.960;5.582;2022-08-21T01:14:14;26.30;46.40
71237;DHT22;58984;51.960;5.582;2022-08-21T01:16:44;26.30;46.40
71237;DHT22;58984;51.960;5.582;2022-08-21T01:19:12;26.20;46.50
71237;DHT22;58984;51.960;5.582;2022-08-21T01:21:38;26.30;46.50
71237;DHT22;58984;51.960;5.582;2022-08-21T01:24:04;26.30;46.50
71237;DHT22;58984;51.960;5.582;2022-08-21T01:26:32;26.30;46.60
71237;DHT22;58984;51.960;5.582;2022-08-21T01:29:11;26.20;47.20
71237;DHT22;58984;51.960;5.582;2022-08-21T01:31:38;26.20;46.50
71237;DHT22;58984;51.960;5.582;2022-08-21T01:34:05;26.20;46.50
71237;DHT22;58984;51.960;5.582;2022-08-21T01:36:31;26.20;46.60
71237;DHT22;58984;51.960;5.582;2022-08-21T01:38:56;26.20;46.50
71237;DHT22;58984;51.960;5.582;2022-08-21T01:41:22;26.10;46.50
71237;DHT22;58984;51.960;5.582;2022-08-21T01:43:48;26.10;46.60
71237;DHT22;58984;51.960;5.582;2022-08-21T01:46:15;26.10;46.60
71237;DHT22;58984;51.960;5.582;2022-08-21T01:48:42;26.10;46.70
71237;DHT22;58984;51.960;5.582;2022-08-21T01:51:08;26.10;46.70
71237;DHT22;58984;51.960;5.582;2022-08-21T01:53:35;26.10;46.70
71237;DHT22;58984;51.960;5.582;2022-08-21T01:56:03;26.10;46.70
71237;DHT22;58984;51.960;5.582;2022-08-21T01:58:29;26.10;46.80
71237;DHT22;58984;51.960;5.582;2022-08-21T02:00:54;26.00;46.80
71237;DHT22;58984;51.960;5.582;2022-08-21T02:03:20;26.00;46.80
71237;DHT22;58984;51.960;5.582;2022-08-21T02:05:46;26.00;46.80
71237;DHT22;58984;51.960;5.582;2022-08-21T02:08:11;26.00;46.80
71237;DHT22;58984;51.960;5.582;2022-08-21T02:10:38;26.00;46.90
71237;DHT22;58984;51.960;5.582;2022-08-21T02:13:03;26.00;46.90
71237;DHT22;58984;51.960;5.582;2022-08-21T02:15:30;26.00;47.00
71237;DHT22;58984;51.960;5.582;2022-08-21T02:17:59;26.00;47.00
71237;DHT22;58984;51.960;5.582;2022-08-21T02:20:39;25.90;47.00
71237;DHT22;58984;51.960;5.582;2022-08-21T02:23:06;25.80;47.00
71237;DHT22;58984;51.960;5.582;2022-08-21T02:25:33;25.90;47.00
71237;DHT22;58984;51.960;5.582;2022-08-21T02:28:04;25.90;47.10
71237;DHT22;58984;51.960;5.582;2022-08-21T02:30:34;25.80;47.00
71237;DHT22;58984;51.960;5.582;2022-08-21T02:33:00;25.80;47.10
71237;DHT22;58984;51.960;5.582;2022-08-21T02:35:26;25.80;47.00
71237;DHT22;58984;51.960;5.582;2022-08-21T02:37:55;25.80;47.00
71237;DHT22;58984;51.960;5.582;2022-08-21T02:40:24;25.80;47.10
71237;DHT22;58984;51.960;5.582;2022-08-21T02:42:51;25.80;47.10
71237;DHT22;58984;51.960;5.582;2022-08-21T02:45:17;25.80;47.10
71237;DHT22;58984;51.960;5.582;2022-08-21T02:47:51;25.80;47.10
71237;DHT22;58984;51.960;5.582;2022-08-21T02:50:29;25.70;47.10
71237;DHT22;58984;51.960;5.582;2022-08-21T02:52:56;25.70;47.10
71237;DHT22;58984;51.960;5.582;2022-08-21T02:55:27;25.80;47.10
71237;DHT22;58984;51.960;5.582;2022-08-21T02:57:54;25.70;47.20
71237;DHT22;58984;51.960;5.582;2022-08-21T03:00:20;25.70;47.20
71237;DHT22;58984;51.960;5.582;2022-08-21T03:02:47;25.70;47.80
71237;DHT22;58984;51.960;5.582;2022-08-21T03:05:13;25.70;47.20
71237;DHT22;58984;51.960;5.582;2022-08-21T03:07:41;25.70;47.20
71237;DHT22;58984;51.960;5.582;2022-08-21T03:10:07;25.60;47.20
71237;DHT22;58984;51.960;5.582;2022-08-21T03:12:33;25.60;47.20
71237;DHT22;58984;51.960;5.582;2022-08-21T03:15:01;25.60;47.20
71237;DHT22;58984;51.960;5.582;2022-08-21T03:17:27;25.60;47.20
71237;DHT22;58984;51.960;5.582;2022-08-21T03:19:52;25.60;47.20
71237;DHT22;58984;51.960;5.582;2022-08-21T03:22:18;25.50;47.20
71237;DHT22;58984;51.960;5.582;2022-08-21T03:24:43;25.50;47.20
71237;DHT22;58984;51.960;5.582;2022-08-21T03:27:10;25.50;47.20
71237;DHT22;58984;51.960;5.582;2022-08-21T03:29:37;25.50;47.20
71237;DHT22;58984;51.960;5.582;2022-08-21T03:32:03;25.50;47.30
71237;DHT22;58984;51.960;5.582;2022-08-21T03:34:29;25.50;47.30
71237;DHT22;58984;51.960;5.582;2022-08-21T03:36:55;25.40;47.20
71237;DHT22;58984;51.960;5.582;2022-08-21T03:39:20;25.50;47.30
71237;DHT22;58984;51.960;5.582;2022-08-21T03:41:46;25.40;47.30
71237;DHT22;58984;51.960;5.582;2022-08-21T03:44:13;25.40;47.30
71237;DHT22;58984;51.960;5.582;2022-08-21T03:46:38;25.40;47.40
71237;DHT22;58984;51.960;5.582;2022-08-21T03:49:06;25.40;47.50
71237;DHT22;58984;51.960;5.582;2022-08-21T03:51:31;25.40;47.60
71237;DHT22;58984;51.960;5.582;2022-08-21T03:53:59;25.40;47.60
71237;DHT22;58984;51.960;5.582;2022-08-21T03:56:24;25.30;47.60
71237;DHT22;58984;51.960;5.582;2022-08-21T03:58:50;25.30;47.60
71237;DHT22;58984;51.960;5.582;2022-08-21T04:01:16;25.30;47.70
71237;DHT22;58984;51.960;5.582;2022-08-21T04:03:42;25.30;47.70
71237;DHT22;58984;51.960;5.582;2022-08-21T04:06:07;25.30;47.80
71237;DHT22;58984;51.960;5.582;2022-08-21T04:08:34;25.20;47.80
71237;DHT22;58984;51.960;5.582;2022-08-21T04:11:01;25.30;47.90
71237;DHT22;58984;51.960;5.582;2022-08-21T04:13:27;25.20;47.80
71237;DHT22;58984;51.960;5.582;2022-08-21T04:15:54;25.20;47.80
71237;DHT22;58984;51.960;5.582;2022-08-21T04:18:20;25.20;47.80
71237;DHT22;58984;51.960;5.582;2022-08-21T04:20:48;25.20;47.80
71237;DHT22;58984;51.960;5.582;2022-08-21T04:23:15;25.20;47.90
71237;DHT22;58984;51.960;5.582;2022-08-21T04:25:40;25.20;47.80
71237;DHT22;58984;51.960;5.582;2022-08-21T04:28:06;25.20;47.80
71237;DHT22;58984;51.960;5.582;2022-08-21T04:30:32;25.20;47.80
71237;DHT22;58984;51.960;5.582;2022-08-21T04:32:58;25.20;47.80
71237;DHT22;58984;51.960;5.582;2022-08-21T04:35:25;25.10;47.80
71237;DHT22;58984;51.960;5.582;2022-08-21T04:37:51;25.10;47.90
71237;DHT22;58984;51.960;5.582;2022-08-21T04:40:18;25.10;47.90
71237;DHT22;58984;51.960;5.582;2022-08-21T04:42:53;25.00;47.90
71237;DHT22;58984;51.960;5.582;2022-08-21T04:45:25;25.00;47.90
71237;DHT22;58984;51.960;5.582;2022-08-21T04:47:53;25.00;48.00
71237;DHT22;58984;51.960;5.582;2022-08-21T04:50:21;25.00;48.00
71237;DHT22;58984;51.960;5.582;2022-08-21T04:52:47;25.00;48.00
71237;DHT22;58984;51.960;5.582;2022-08-21T04:55:14;25.00;48.00
71237;DHT22;58984;51.960;5.582;2022-08-21T04:57:41;25.00;48.10
71237;DHT22;58984;51.960;5.582;2022-08-21T05:00:08;25.00;48.10
71237;DHT22;58984;51.960;5.582;2022-08-21T05:02:35;24.90;48.10
71237;DHT22;58984;51.960;5.582;2022-08-21T05:05:01;24.90;48.10
71237;DHT22;58984;51.960;5.582;2022-08-21T05:07:29;24.90;48.20
71237;DHT22;58984;51.960;5.582;2022-08-21T05:09:55;24.90;48.20
71237;DHT22;58984;51.960;5.582;2022-08-21T05:12:21;24.90;48.20
71237;DHT22;58984;51.960;5.582;2022-08-21T05:14:47;24.90;48.20
71237;DHT22;58984;51.960;5.582;2022-08-21T05:17:13;24.90;48.20
71237;DHT22;58984;51.960;5.582;2022-08-21T05:19:39;24.90;48.20
71237;DHT22;58984;51.960;5.582;2022-08-21T05:22:05;24.90;48.20
71237;DHT22;58984;51.960;5.582;2022-08-21T05:24:31;24.90;48.20
71237;DHT22;58984;51.960;5.582;2022-08-21T05:26:57;24.90;48.30
71237;DHT22;58984;51.960;5.582;2022-08-21T05:29:24;24.80;48.20
71237;DHT22;58984;51.960;5.582;2022-08-21T05:31:49;24.80;48.20
71237;DHT22;58984;51.960;5.582;2022-08-21T05:34:20;24.80;48.20
71237;DHT22;58984;51.960;5.582;2022-08-21T05:36:46;24.70;48.30
71237;DHT22;58984;51.960;5.582;2022-08-21T05:39:12;24.80;48.40
71237;DHT22;58984;51.960;5.582;2022-08-21T05:41:37;24.80;48.30
71237;DHT22;58984;51.960;5.582;2022-08-21T05:44:03;24.80;48.40
71237;DHT22;58984;51.960;5.582;2022-08-21T05:46:29;24.70;48.30
71237;DHT22;58984;51.960;5.582;2022-08-21T05:48:55;24.70;48.40
71237;DHT22;58984;51.960;5.582;2022-08-21T05:51:20;24.70;48.40
71237;DHT22;58984;51.960;5.582;2022-08-21T05:53:46;24.70;48.50
71237;DHT22;58984;51.960;5.582;2022-08-21T05:56:13;24.70;48.50
71237;DHT22;58984;51.960;5.582;2022-08-21T05:58:39;24.70;48.50
71237;DHT22;58984;51.960;5.582;2022-08-21T06:01:05;24.70;48.60
71237;DHT22;58984;51.960;5.582;2022-08-21T06:03:33;24.70;48.60
71237;DHT22;58984;51.960;5.582;2022-08-21T06:05:59;24.70;48.70
71237;DHT22;58984;51.960;5.582;2022-08-21T06:08:26;24.70;48.70
71237;DHT22;58984;51.960;5.582;2022-08-21T06:10:52;24.70;48.80
71237;DHT22;58984;51.960;5.582;2022-08-21T06:13:20;24.70;48.90
71237;DHT22;58984;51.960;5.582;2022-08-21T06:15:46;24.70;48.90
71237;DHT22;58984;51.960;5.582;2022-08-21T06:18:12;24.60;48.90
71237;DHT22;58984;51.960;5.582;2022-08-21T06:20:39;24.60;49.00
71237;DHT22;58984;51.960;5.582;2022-08-21T06:23:04;24.70;49.10
71237;DHT22;58984;51.960;5.582;2022-08-21T06:25:30;24.60;49.00
71237;DHT22;58984;51.960;5.582;2022-08-21T06:28:09;24.60;49.00
71237;DHT22;58984;51.960;5.582;2022-08-21T06:30:36;24.50;49.00
71237;DHT22;58984;51.960;5.582;2022-08-21T06:33:03;24.80;48.70
71237;DHT22;58984;51.960;5.582;2022-08-21T06:35:28;24.60;49.20
71237;DHT22;58984;51.960;5.582;2022-08-21T06:37:55;24.60;49.20
71237;DHT22;58984;51.960;5.582;2022-08-21T06:40:21;24.60;49.30
71237;DHT22;58984;51.960;5.582;2022-08-21T06:42:46;24.60;49.30
71237;DHT22;58984;51.960;5.582;2022-08-21T06:45:12;24.60;49.40
71237;DHT22;58984;51.960;5.582;2022-08-21T06:47:38;24.60;49.40
71237;DHT22;58984;51.960;5.582;2022-08-21T06:50:04;24.60;49.50
71237;DHT22;58984;51.960;5.582;2022-08-21T06:52:33;24.60;49.50
71237;DHT22;58984;51.960;5.582;2022-08-21T06:54:59;24.60;49.50
71237;DHT22;58984;51.960;5.582;2022-08-21T06:57:24;24.60;49.60
71237;DHT22;58984;51.960;5.582;2022-08-21T06:59:50;24.60;49.60
71237;DHT22;58984;51.960;5.582;2022-08-21T07:02:16;24.70;49.80
71237;DHT22;58984;51.960;5.582;2022-08-21T07:04:42;24.70;49.80
71237;DHT22;58984;51.960;5.582;2022-08-21T07:07:08;24.60;49.70
71237;DHT22;58984;51.960;5.582;2022-08-21T07:09:33;24.60;49.70
71237;DHT22;58984;51.960;5.582;2022-08-21T07:11:59;24.60;49.70
71237;DHT22;58984;51.960;5.582;2022-08-21T07:14:25;24.70;49.80
71237;DHT22;58984;51.960;5.582;2022-08-21T07:16:51;24.60;49.70
71237;DHT22;58984;51.960;5.582;2022-08-21T07:19:16;24.70;49.80
71237;DHT22;58984;51.960;5.582;2022-08-21T07:21:42;24.70;49.80
71237;DHT22;58984;51.960;5.582;2022-08-21T07:24:08;24.70;49.80
71237;DHT22;58984;51.960;5.582;2022-08-21T07:26:34;24.70;49.80
71237;DHT22;58984;51.960;5.582;2022-08-21T07:28:59;24.70;49.80
71237;DHT22;58984;51.960;5.582;2022-08-21T07:31:26;24.80;49.90
71237;DHT22;58984;51.960;5.582;2022-08-21T07:33:51;24.70;49.80
71237;DHT22;58984;51.960;5.582;2022-08-21T07:36:17;24.80;49.90
71237;DHT22;58984;51.960;5.582;2022-08-21T07:38:43;24.80;49.90
71237;DHT22;58984;51.960;5.582;2022-08-21T07:41:17;24.80;49.90
71237;DHT22;58984;51.960;5.582;2022-08-21T07:43:44;24.70;50.00
71237;DHT22;58984;51.960;5.582;2022-08-21T07:46:10;24.90;50.00
71237;DHT22;58984;51.960;5.582;2022-08-21T07:48:36;24.90;50.10
71237;DHT22;58984;51.960;5.582;2022-08-21T07:51:10;24.90;50.00
71237;DHT22;58984;51.960;5.582;2022-08-21T07:53:37;24.90;50.20
71237;DHT22;58984;51.960;5.582;2022-08-21T07:56:04;24.90;50.10
71237;DHT22;58984;51.960;5.582;2022-08-21T07:58:30;25.00;50.20
71237;DHT22;58984;51.960;5.582;2022-08-21T08:00:56;25.00;50.20
71237;DHT22;58984;51.960;5.582;2022-08-21T08:03:22;25.00;50.10
71237;DHT22;58984;51.960;5.582;2022-08-21T08:05:47;25.00;50.00
71237;DHT22;58984;51.960;5.582;2022-08-21T08:08:13;25.10;50.10
71237;DHT22;58984;51.960;5.582;2022-08-21T08:10:39;25.10;50.10
71237;DHT22;58984;51.960;5.582;2022-08-21T08:13:04;25.10;50.00
71237;DHT22;58984;51.960;5.582;2022-08-21T08:15:30;25.10;49.90
71237;DHT22;58984;51.960;5.582;2022-08-21T08:17:56;25.20;50.00
71237;DHT22;58984;51.960;5.582;2022-08-21T08:20:23;25.20;50.10
71237;DHT22;58984;51.960;5.582;2022-08-21T08:22:52;25.20;50.20
71237;DHT22;58984;51.960;5.582;2022-08-21T08:25:18;25.20;50.20
71237;DHT22;58984;51.960;5.582;2022-08-21T08:27:44;25.30;50.30
71237;DHT22;58984;51.960;5.582;2022-08-21T08:30:12;25.30;50.30
71237;DHT22;58984;51.960;5.582;2022-08-21T08:32:39;25.30;50.50
71237;DHT22;58984;51.960;5.582;2022-08-21T08:35:05;25.40;50.60
71237;DHT22;58984;51.960;5.582;2022-08-21T08:37:33;25.40;50.60
71237;DHT22;58984;51.960;5.582;2022-08-21T08:39:59;25.50;50.70
71237;DHT22;58984;51.960;5.582;2022-08-21T08:42:35;25.50;50.70
71237;DHT22;58984;51.960;5.582;2022-08-21T08:45:06;25.50;51.40
71237;DHT22;58984;51.960;5.582;2022-08-21T08:47:36;25.70;50.80
71237;DHT22;58984;51.960;5.582;2022-08-21T08:50:09;25.60;50.90
71237;DHT22;58984;51.960;5.582;2022-08-21T08:52:40;25.70;51.00
71237;DHT22;58984;51.960;5.582;2022-08-21T08:57:38;25.80;51.00
71237;DHT22;58984;51.960;5.582;2022-08-21T09:00:08;25.90;51.10
71237;DHT22;58984;51.960;5.582;2022-08-21T09:02:38;25.90;51.00
71237;DHT22;58984;51.960;5.582;2022-08-21T09:05:05;25.90;51.00
71237;DHT22;58984;51.960;5.582;2022-08-21T09:07:49;26.10;51.10
71237;DHT22;58984;51.960;5.582;2022-08-21T09:10:36;26.00;51.20
71237;DHT22;58984;51.960;5.582;2022-08-21T09:13:28;26.10;51.10
71237;DHT22;58984;51.960;5.582;2022-08-21T09:16:18;26.20;51.30
71237;DHT22;58984;51.960;5.582;2022-08-21T09:21:46;26.30;51.10
71237;DHT22;58984;51.960;5.582;2022-08-21T09:27:04;26.50;51.20
71237;DHT22;58984;51.960;5.582;2022-08-21T09:29:34;26.40;51.30
71237;DHT22;58984;51.960;5.582;2022-08-21T09:32:16;26.60;51.20
71237;DHT22;58984;51.960;5.582;2022-08-21T09:37:56;26.70;51.30
71237;DHT22;58984;51.960;5.582;2022-08-21T09:40:37;26.90;51.30
71237;DHT22;58984;51.960;5.582;2022-08-21T09:43:15;26.80;51.40
71237;DHT22;58984;51.960;5.582;2022-08-21T09:45:43;27.00;51.40
71237;DHT22;58984;51.960;5.582;2022-08-21T09:48:22;27.00;51.20
71237;DHT22;58984;51.960;5.582;2022-08-21T09:50:49;27.00;51.30
71237;DHT22;58984;51.960;5.582;2022-08-21T09:55:55;27.10;51.10
71237;DHT22;58984;51.960;5.582;2022-08-21T09:58:42;27.10;51.10
71237;DHT22;58984;51.960;5.582;2022-08-21T10:01:14;27.20;51.00
71237;DHT22;58984;51.960;5.582;2022-08-21T10:03:40;27.20;51.10
71237;DHT22;58984;51.960;5.582;2022-08-21T10:06:07;27.30;51.10
71237;DHT22;58984;51.960;5.582;2022-08-21T10:08:37;27.40;51.20
71237;DHT22;58984;51.960;5.582;2022-08-21T10:11:09;27.40;51.20
71237;DHT22;58984;51.960;5.582;2022-08-21T10:16:15;27.40;51.30
71237;DHT22;58984;51.960;5.582;2022-08-21T10:19:04;27.60;51.20
71237;DHT22;58984;51.960;5.582;2022-08-21T10:21:38;27.40;51.20
71237;DHT22;58984;51.960;5.582;2022-08-21T10:24:44;27.60;51.20
71237;DHT22;58984;51.960;5.582;2022-08-21T10:27:30;27.60;51.30
71237;DHT22;58984;51.960;5.582;2022-08-21T10:30:06;27.70;51.10
71237;DHT22;58984;51.960;5.582;2022-08-21T10:35:32;27.70;51.30
71237;DHT22;58984;51.960;5.582;2022-08-21T10:41:24;27.80;51.30
71237;DHT22;58984;51.960;5.582;2022-08-21T10:44:17;27.90;52.00
71237;DHT22;58984;51.960;5.582;2022-08-21T10:47:06;27.90;51.20
71237;DHT22;58984;51.960;5.582;2022-08-21T10:50:04;28.00;51.20
71237;DHT22;58984;51.960;5.582;2022-08-21T10:55:41;28.00;51.20
71237;DHT22;58984;51.960;5.582;2022-08-21T10:58:28;28.10;51.20
71237;DHT22;58984;51.960;5.582;2022-08-21T11:01:03;28.20;51.20
71237;DHT22;58984;51.960;5.582;2022-08-21T11:03:41;28.20;51.00
71237;DHT22;58984;51.960;5.582;2022-08-21T11:06:18;28.20;51.00
71237;DHT22;58984;51.960;5.582;2022-08-21T11:08:59;28.30;51.10
71237;DHT22;58984;51.960;5.582;2022-08-21T11:11:36;28.30;50.80
71237;DHT22;58984;51.960;5.582;2022-08-21T11:14:20;28.40;50.80
71237;DHT22;58984;51.960;5.582;2022-08-21T11:17:07;28.40;50.70
71237;DHT22;58984;51.960;5.582;2022-08-21T11:19:50;28.50;50.60
71237;DHT22;58984;51.960;5.582;2022-08-21T11:30:05;28.70;50.60
71237;DHT22;58984;51.960;5.582;2022-08-21T11:35:38;28.80;50.60
71237;DHT22;58984;51.960;5.582;2022-08-21T11:41:09;28.70;50.70
71237;DHT22;58984;51.960;5.582;2022-08-21T11:43:47;28.80;50.50
71237;DHT22;58984;51.960;5.582;2022-08-21T11:46:25;28.90;51.10
71237;DHT22;58984;51.960;5.582;2022-08-21T11:54:38;29.00;50.30
71237;DHT22;58984;51.960;5.582;2022-08-21T12:02:35;29.00;50.30
71237;DHT22;58984;51.960;5.582;2022-08-21T12:05:07;29.10;50.30
71237;DHT22;58984;51.960;5.582;2022-08-21T12:07:45;29.10;50.30
71237;DHT22;58984;51.960;5.582;2022-08-21T12:10:19;29.10;50.20
71237;DHT22;58984;51.960;5.582;2022-08-21T12:12:48;29.10;50.00
71237;DHT22;58984;51.960;5.582;2022-08-21T12:15:27;29.30;50.00
71237;DHT22;58984;51.960;5.582;2022-08-21T12:20:37;29.30;49.80
71237;DHT22;58984;51.960;5.582;2022-08-21T12:23:17;29.20;49.60
71237;DHT22;58984;51.960;5.582;2022-08-21T12:25:47;29.30;49.70
71237;DHT22;58984;51.960;5.582;2022-08-21T12:28:27;29.40;49.70
71237;DHT22;58984;51.960;5.582;2022-08-21T12:30:59;29.40;49.50
71237;DHT22;58984;51.960;5.582;2022-08-21T12:33:40;29.40;49.40
71237;DHT22;58984;51.960;5.582;2022-08-21T12:36:17;29.40;49.30
71237;DHT22;58984;51.960;5.582;2022-08-21T12:39:04;29.50;49.40
71237;DHT22;58984;51.960;5.582;2022-08-21T12:41:59;29.40;49.50
71237;DHT22;58984;51.960;5.582;2022-08-21T12:44:53;29.40;49.30
71237;DHT22;58984;51.960;5.582;2022-08-21T12:47:27;29.40;49.30
71237;DHT22;58984;51.960;5.582;2022-08-21T12:53:09;29.50;48.70
71237;DHT22;58984;51.960;5.582;2022-08-21T12:55:44;29.60;48.80
71237;DHT22;58984;51.960;5.582;2022-08-21T12:58:23;29.50;48.80
71237;DHT22;58984;51.960;5.582;2022-08-21T13:00:56;29.50;49.00
71237;DHT22;58984;51.960;5.582;2022-08-21T13:03:23;29.60;49.00
71237;DHT22;58984;51.960;5.582;2022-08-21T13:05:55;29.60;48.70
71237;DHT22;58984;51.960;5.582;2022-08-21T13:08:26;29.50;48.50
71237;DHT22;58984;51.960;5.582;2022-08-21T13:11:02;29.60;48.50
71237;DHT22;58984;51.960;5.582;2022-08-21T13:13:33;29.60;48.50
71237;DHT22;58984;51.960;5.582;2022-08-21T13:16:08;29.60;48.00
71237;DHT22;58984;51.960;5.582;2022-08-21T13:18:54;29.50;48.10
71237;DHT22;58984;51.960;5.582;2022-08-21T13:21:20;29.60;48.10
71237;DHT22;58984;51.960;5.582;2022-08-21T13:23:46;29.70;48.00
71237;DHT22;58984;51.960;5.582;2022-08-21T13:26:18;29.70;48.70
71237;DHT22;58984;51.960;5.582;2022-08-21T13:28:45;29.70;48.10
71237;DHT22;58984;51.960;5.582;2022-08-21T13:31:16;29.70;48.10
71237;DHT22;58984;51.960;5.582;2022-08-21T13:33:43;29.70;48.10
71237;DHT22;58984;51.960;5.582;2022-08-21T13:36:24;29.70;48.20
71237;DHT22;58984;51.960;5.582;2022-08-21T13:38:51;29.70;48.20
71237;DHT22;58984;51.960;5.582;2022-08-21T13:41:28;29.80;48.00
71237;DHT22;58984;51.960;5.582;2022-08-21T13:46:33;29.70;48.10
71237;DHT22;58984;51.960;5.582;2022-08-21T13:49:00;29.70;47.90
71237;DHT22;58984;51.960;5.582;2022-08-21T13:51:28;29.70;47.70
71237;DHT22;58984;51.960;5.582;2022-08-21T13:53:54;29.70;47.70
71237;DHT22;58984;51.960;5.582;2022-08-21T13:56:44;29.70;47.70
71237;DHT22;58984;51.960;5.582;2022-08-21T13:59:11;29.60;47.90
71237;DHT22;58984;51.960;5.582;2022-08-21T14:01:49;29.80;47.70
71237;DHT22;58984;51.960;5.582;2022-08-21T14:04:20;29.70;47.80
71237;DHT22;58984;51.960;5.582;2022-08-21T14:06:46;29.80;47.70
71237;DHT22;58984;51.960;5.582;2022-08-21T14:11:57;29.60;47.50
71237;DHT22;58984;51.960;5.582;2022-08-21T14:14:28;29.80;47.70
71237;DHT22;58984;51.960;5.582;2022-08-21T14:16:55;29.70;47.30
71237;DHT22;58984;51.960;5.582;2022-08-21T14:19:44;29.80;47.50
71237;DHT22;58984;51.960;5.582;2022-08-21T14:25:01;29.60;47.20
71237;DHT22;58984;51.960;5.582;2022-08-21T14:27:29;29.70;46.90
71237;DHT22;58984;51.960;5.582;2022-08-21T14:30:00;29.70;46.80
71237;DHT22;58984;51.960;5.582;2022-08-21T14:32:28;29.70;47.00
71237;DHT22;58984;51.960;5.582;2022-08-21T14:34:55;29.70;47.10
71237;DHT22;58984;51.960;5.582;2022-08-21T14:37:22;29.70;47.20
71237;DHT22;58984;51.960;5.582;2022-08-21T14:39:48;29.70;47.20
71237;DHT22;58984;51.960;5.582;2022-08-21T14:42:13;29.70;47.30
71237;DHT22;58984;51.960;5.582;2022-08-21T14:44:39;29.70;47.30
71237;DHT22;58984;51.960;5.582;2022-08-21T14:47:05;29.70;47.00
71237;DHT22;58984;51.960;5.582;2022-08-21T14:49:30;29.70;47.00
71237;DHT22;58984;51.960;5.582;2022-08-21T14:51:57;29.70;46.80
71237;DHT22;58984;51.960;5.582;2022-08-21T14:54:25;29.60;46.80
71237;DHT22;58984;51.960;5.582;2022-08-21T14:56:51;29.60;46.60
71237;DHT22;58984;51.960;5.582;2022-08-21T14:59:17;29.60;46.70
71237;DHT22;58984;51.960;5.582;2022-08-21T15:01:42;29.60;46.60
71237;DHT22;58984;51.960;5.582;2022-08-21T15:04:08;29.60;46.50
71237;DHT22;58984;51.960;5.582;2022-08-21T15:06:34;29.60;46.40
71237;DHT22;58984;51.960;5.582;2022-08-21T15:08:59;29.60;45.90
71237;DHT22;58984;51.960;5.582;2022-08-21T15:11:27;29.60;46.00
71237;DHT22;58984;51.960;5.582;2022-08-21T15:13:56;29.60;46.30
71237;DHT22;58984;51.960;5.582;2022-08-21T15:16:23;29.50;46.30
71237;DHT22;58984;51.960;5.582;2022-08-21T15:18:49;29.60;46.30
71237;DHT22;58984;51.960;5.582;2022-08-21T15:21:14;29.50;46.30
71237;DHT22;58984;51.960;5.582;2022-08-21T15:23:40;29.50;46.20
71237;DHT22;58984;51.960;5.582;2022-08-21T15:26:06;29.50;46.20
71237;DHT22;58984;51.960;5.582;2022-08-21T15:28:33;29.50;45.90
71237;DHT22;58984;51.960;5.582;2022-08-21T15:31:00;29.50;45.90
71237;DHT22;58984;51.960;5.582;2022-08-21T15:33:26;29.50;45.80
71237;DHT22;58984;51.960;5.582;2022-08-21T15:35:51;29.50;46.20
71237;DHT22;58984;51.960;5.582;2022-08-21T15:38:17;29.50;45.70
71237;DHT22;58984;51.960;5.582;2022-08-21T15:40:43;29.50;45.60
71237;DHT22;58984;51.960;5.582;2022-08-21T15:43:21;29.50;45.60
71237;DHT22;58984;51.960;5.582;2022-08-21T15:45:48;29.40;45.60
71237;DHT22;58984;51.960;5.582;2022-08-21T15:48:13;29.40;45.60
71237;DHT22;58984;51.960;5.582;2022-08-21T15:50:39;29.40;45.50
71237;DHT22;58984;51.960;5.582;2022-08-21T15:53:05;29.40;45.50
71237;DHT22;58984;51.960;5.582;2022-08-21T15:55:32;29.40;45.50
71237;DHT22;58984;51.960;5.582;2022-08-21T15:57:58;29.40;45.10
71237;DHT22;58984;51.960;5.582;2022-08-21T16:00:24;29.40;41.80
71237;DHT22;58984;51.960;5.582;2022-08-21T16:02:53;29.10;41.40
71237;DHT22;58984;51.960;5.582;2022-08-21T16:05:21;29.10;42.50
71237;DHT22;58984;51.960;5.582;2022-08-21T16:07:48;29.10;42.70
71237;DHT22;58984;51.960;5.582;2022-08-21T16:10:16;29.20;43.30
71237;DHT22;58984;51.960;5.582;2022-08-21T16:12:46;29.20;43.70
71237;DHT22;58984;51.960;5.582;2022-08-21T16:15:13;29.20;43.90
71237;DHT22;58984;51.960;5.582;2022-08-21T16:17:41;29.20;44.20
71237;DHT22;58984;51.960;5.582;2022-08-21T16:20:11;29.20;44.30
71237;DHT22;58984;51.960;5.582;2022-08-21T16:22:37;29.20;44.50
71237;DHT22;58984;51.960;5.582;2022-08-21T16:25:05;29.20;44.50
71237;DHT22;58984;51.960;5.582;2022-08-21T16:27:32;29.20;44.60
71237;DHT22;58984;51.960;5.582;2022-08-21T16:29:59;29.20;44.60
71237;DHT22;58984;51.960;5.582;2022-08-21T16:32:25;29.20;44.60
71237;DHT22;58984;51.960;5.582;2022-08-21T16:34:50;29.20;44.70
71237;DHT22;58984;51.960;5.582;2022-08-21T16:37:16;29.20;44.70
71237;DHT22;58984;51.960;5.582;2022-08-21T16:39:43;29.20;44.80
71237;DHT22;58984;51.960;5.582;2022-08-21T16:42:12;29.10;45.40
71237;DHT22;58984;51.960;5.582;2022-08-21T16:44:41;29.10;44.80
71237;DHT22;58984;51.960;5.582;2022-08-21T16:47:07;29.10;44.80